Time;durP1;ratioP1;P1;durP2;ratioP2;P2;SDS_P1;SDS_P2;PMS_P1;PMS_P2;Temp;Humidity;BMP_temperature;BMP_pressure;BME280_temperature;BME280_humidity;BME280_pressure;Samples;Min_cycle;Max_cycle;Signal;HPM_P1;HPM_P2
2023/03/11 00:01:39;;;;;;;5.22;1.33;;;;;;;;;;4991730;28;20137;-62
2023/03/11 00:04:06;;;;;;;9.15;1.73;;;;;;;;;;4991409;28;20050;-62
2023/03/11 00:06:34;;;;;;;9.25;1.85;;;;;;;;;;4992023;28;20043;-62
2023/03/11 00:09:00;;;;;;;5.22;1.42;;;;;;;;;;4991903;28;20458;-62
2023/03/11 00:11:26;;;;;;;3.75;1.00;;;;;;;;;;4991512;28;20049;-62
2023/03/11 00:13:52;;;;;;;7.15;1.55;;;;;;;;;;4991536;28;20741;-61
2023/03/11 00:16:18;;;;;;;4.32;1.35;;;;;;;;;;4991889;28;20049;-61
2023/03/11 00:18:44;;;;;;;3.63;1.60;;;;;;;;;;4991682;28;20053;-61
2023/03/11 00:21:15;;;;;;;3.35;1.20;;;;;;;;;;4991070;28;20085;-61
2023/03/11 00:23:41;;;;;;;6.78;1.70;;;;;;;;;;4997779;28;20049;-61
2023/03/11 00:26:07;;;;;;;9.73;1.83;;;;;;;;;;5010131;28;20041;-61
2023/03/11 00:28:33;;;;;;;8.40;1.50;;;;;;;;;;5010467;28;20089;-61
2023/03/11 00:30:59;;;;;;;4.00;1.40;;;;;;;;;;5011321;28;20045;-61
2023/03/11 00:33:25;;;;;;;5.25;1.50;;;;;;;;;;5011126;28;20439;-61
2023/03/11 00:35:51;;;;;;;4.55;1.45;;;;;;;;;;5010702;28;20045;-61
2023/03/11 00:38:17;;;;;;;7.90;1.60;;;;;;;;;;5012121;28;20057;-61
2023/03/11 00:40:44;;;;;;;7.80;1.90;;;;;;;;;;5014744;28;20757;-61
2023/03/11 00:43:10;;;;;;;6.53;1.60;;;;;;;;;;5014445;28;20042;-61
2023/03/11 00:45:37;;;;;;;3.67;1.23;;;;;;;;;;5013771;28;20044;-61
2023/03/11 00:48:03;;;;;;;4.63;1.40;;;;;;;;;;5003733;28;20047;-61
2023/03/11 00:50:30;;;;;;;6.53;1.83;;;;;;;;;;4994709;28;20093;-62
2023/03/11 00:52:57;;;;;;;6.10;1.60;;;;;;;;;;4995210;28;20085;-61
2023/03/11 00:55:24;;;;;;;6.85;1.70;;;;;;;;;;4995258;28;20141;-61
2023/03/11 00:57:53;;;;;;;8.60;1.65;;;;;;;;;;4994650;28;20129;-61
2023/03/11 01:00:22;;;;;;;6.43;1.95;;;;;;;;;;4995280;28;20774;-61
2023/03/11 01:02:48;;;;;;;4.65;1.45;;;;;;;;;;4995014;28;20048;-61
2023/03/11 01:05:14;;;;;;;7.85;1.35;;;;;;;;;;4994651;28;20042;-61
2023/03/11 01:07:40;;;;;;;4.80;1.38;;;;;;;;;;4995214;28;20038;-61
2023/03/11 01:10:08;;;;;;;6.57;1.42;;;;;;;;;;4995153;28;20030;-61
2023/03/11 01:12:34;;;;;;;6.15;1.55;;;;;;;;;;4994374;28;20396;-61
2023/03/11 01:15:00;;;;;;;10.73;1.23;;;;;;;;;;4995191;28;20480;-61
2023/03/11 01:17:26;;;;;;;5.00;1.20;;;;;;;;;;4995064;28;20042;-61
2023/03/11 01:19:52;;;;;;;8.60;1.58;;;;;;;;;;4994344;28;20044;-61
2023/03/11 01:22:18;;;;;;;5.63;1.50;;;;;;;;;;4995051;28;20042;-61
2023/03/11 01:24:45;;;;;;;4.47;1.67;;;;;;;;;;5009770;28;20053;-61
2023/03/11 01:27:11;;;;;;;6.90;1.10;;;;;;;;;;5013699;28;20042;-61
2023/03/11 01:29:37;;;;;;;3.85;1.23;;;;;;;;;;5014289;28;20091;-61
2023/03/11 01:32:03;;;;;;;5.03;1.30;;;;;;;;;;5014451;28;20483;-61
2023/03/11 01:34:29;;;;;;;7.22;1.30;;;;;;;;;;5013297;28;20130;-61
2023/03/11 01:36:55;;;;;;;4.90;1.17;;;;;;;;;;5014234;28;20046;-61
2023/03/11 01:39:21;;;;;;;6.05;1.25;;;;;;;;;;5013669;28;20061;-61
2023/03/11 01:41:47;;;;;;;6.43;1.48;;;;;;;;;;5013307;28;20045;-61
2023/03/11 01:44:13;;;;;;;4.72;1.48;;;;;;;;;;5013394;28;20400;-62
2023/03/11 01:46:48;;;;;;;5.45;1.35;;;;;;;;;;5014030;28;20049;-62
2023/03/11 01:49:14;;;;;;;3.45;1.10;;;;;;;;;;4981554;28;20050;-62
2023/03/11 01:51:42;;;;;;;5.10;1.23;;;;;;;;;;4994202;28;20053;-62
2023/03/11 01:54:31;;;;;;;8.88;1.40;;;;;;;;;;4994409;28;20088;-62
2023/03/11 01:56:58;;;;;;;5.10;1.10;;;;;;;;;;4985763;28;20388;-62
2023/03/11 01:59:26;;;;;;;3.35;0.98;;;;;;;;;;4994051;28;20449;-62
2023/03/11 02:02:00;;;;;;;2.53;0.80;;;;;;;;;;4994000;28;20038;-62
2023/03/11 02:04:28;;;;;;;5.70;0.80;;;;;;;;;;4993392;28;20042;-62
2023/03/11 02:06:55;;;;;;;5.72;0.98;;;;;;;;;;4993783;28;20089;-62
2023/03/11 02:09:22;;;;;;;5.80;1.00;;;;;;;;;;4993841;28;20038;-62
2023/03/11 02:11:49;;;;;;;2.30;0.77;;;;;;;;;;4993292;28;20588;-62
2023/03/11 02:14:16;;;;;;;6.82;1.33;;;;;;;;;;4993871;28;20173;-61
2023/03/11 02:16:42;;;;;;;4.65;1.00;;;;;;;;;;4993782;28;20464;-61
2023/03/11 02:19:15;;;;;;;7.30;1.10;;;;;;;;;;4993089;28;20039;-61
2023/03/11 02:21:41;;;;;;;3.08;1.00;;;;;;;;;;4993772;28;20038;-61
2023/03/11 02:24:34;;;;;;;3.60;0.90;;;;;;;;;;5003480;28;20065;-62
2023/03/11 02:27:00;;;;;;;4.97;1.30;;;;;;;;;;5004100;28;20049;-62
2023/03/11 02:29:26;;;;;;;3.97;0.90;;;;;;;;;;5013159;28;20045;-62
2023/03/11 02:31:52;;;;;;;5.68;1.20;;;;;;;;;;5013209;28;20061;-62
2023/03/11 02:34:23;;;;;;;3.60;0.80;;;;;;;;;;5012396;28;20443;-62
2023/03/11 02:36:49;;;;;;;5.28;0.93;;;;;;;;;;5012668;28;20042;-62
2023/03/11 02:39:15;;;;;;;2.15;0.70;;;;;;;;;;5012414;28;20134;-62
2023/03/11 02:41:43;;;;;;;4.50;1.20;;;;;;;;;;5011842;28;20165;-62
2023/03/11 02:44:11;;;;;;;6.22;1.90;;;;;;;;;;5012920;28;20796;-62
2023/03/11 02:46:38;;;;;;;3.40;0.80;;;;;;;;;;5012515;28;20071;-62
2023/03/11 02:49:05;;;;;;;5.00;1.00;;;;;;;;;;4992410;28;20412;-62
2023/03/11 02:51:31;;;;;;;5.57;1.25;;;;;;;;;;4993243;28;20125;-62
2023/03/11 02:53:59;;;;;;;5.30;0.90;;;;;;;;;;4992564;28;20176;-61
2023/03/11 02:56:25;;;;;;;2.80;0.95;;;;;;;;;;4991280;28;20404;-61
2023/03/11 02:58:51;;;;;;;3.17;0.82;;;;;;;;;;4991670;28;20070;-61
2023/03/11 03:01:17;;;;;;;3.33;0.73;;;;;;;;;;4990925;28;20038;-61
2023/03/11 03:03:43;;;;;;;5.28;1.08;;;;;;;;;;4990828;28;20420;-61
2023/03/11 03:06:09;;;;;;;2.10;0.80;;;;;;;;;;4991365;28;20042;-61
2023/03/11 03:08:35;;;;;;;5.70;0.98;;;;;;;;;;4991378;28;20038;-61
2023/03/11 03:11:02;;;;;;;1.30;0.70;;;;;;;;;;4990742;28;20078;-61
2023/03/11 03:13:28;;;;;;;3.47;0.90;;;;;;;;;;4991561;28;20532;-61
2023/03/11 03:15:54;;;;;;;8.77;1.20;;;;;;;;;;4991304;28;20480;-62
2023/03/11 03:18:20;;;;;;;2.85;0.85;;;;;;;;;;4990568;28;20089;-62
2023/03/11 03:20:46;;;;;;;3.38;0.70;;;;;;;;;;4991245;28;20536;-62
2023/03/11 03:23:19;;;;;;;4.95;1.10;;;;;;;;;;5169429;27;19915;-62
2023/03/11 03:25:46;;;;;;;4.18;1.20;;;;;;;;;;5147838;27;20091;-62
2023/03/11 03:28:12;;;;;;;1.45;0.77;;;;;;;;;;5148760;27;20042;-62
2023/03/11 03:30:39;;;;;;;5.22;1.00;;;;;;;;;;5129836;27;20035;-62
2023/03/11 03:33:05;;;;;;;5.72;0.80;;;;;;;;;;5148005;27;20087;-62
2023/03/11 03:35:32;;;;;;;7.78;0.90;;;;;;;;;;5148594;27;20090;-62
2023/03/11 03:37:58;;;;;;;2.47;1.00;;;;;;;;;;5148713;27;20062;-62
2023/03/11 03:40:24;;;;;;;3.78;1.00;;;;;;;;;;5129281;27;20049;-62
2023/03/11 03:42:51;;;;;;;4.72;1.08;;;;;;;;;;5109202;28;20216;-62
2023/03/11 03:45:17;;;;;;;5.63;1.33;;;;;;;;;;5127404;28;20118;-62
2023/03/11 03:47:43;;;;;;;2.88;0.80;;;;;;;;;;5118199;28;20116;-62
2023/03/11 03:50:09;;;;;;;2.95;0.90;;;;;;;;;;5122795;28;20493;-62
2023/03/11 03:52:36;;;;;;;1.98;0.68;;;;;;;;;;5127552;28;20039;-62
2023/03/11 03:55:02;;;;;;;4.75;1.10;;;;;;;;;;5126734;28;20043;-62
2023/03/11 03:57:29;;;;;;;5.68;0.95;;;;;;;;;;5127546;28;20047;-62
2023/03/11 03:59:55;;;;;;;3.17;0.82;;;;;;;;;;5127380;28;20122;-62
2023/03/11 04:02:21;;;;;;;2.88;1.30;;;;;;;;;;5126510;28;20462;-62
2023/03/11 04:04:47;;;;;;;1.48;0.98;;;;;;;;;;5127056;28;20046;-62
2023/03/11 04:07:13;;;;;;;4.88;1.20;;;;;;;;;;5127420;28;20176;-62
2023/03/11 04:09:40;;;;;;;3.60;1.15;;;;;;;;;;5126504;28;20119;-62
2023/03/11 04:12:06;;;;;;;5.90;1.23;;;;;;;;;;5126960;28;20045;-62
2023/03/11 04:14:32;;;;;;;2.63;1.10;;;;;;;;;;5127191;28;20085;-61
2023/03/11 04:16:58;;;;;;;2.42;0.82;;;;;;;;;;5126506;28;20484;-62
2023/03/11 04:19:24;;;;;;;6.95;1.25;;;;;;;;;;5127010;28;20039;-62
2023/03/11 04:21:51;;;;;;;4.35;1.02;;;;;;;;;;5126614;28;20058;-62
2023/03/11 04:24:17;;;;;;;4.05;0.93;;;;;;;;;;5114644;28;20032;-62
2023/03/11 04:26:43;;;;;;;4.25;1.05;;;;;;;;;;5106279;28;20401;-62
2023/03/11 04:29:10;;;;;;;7.55;1.45;;;;;;;;;;5106322;28;20051;-62
2023/03/11 04:31:36;;;;;;;2.83;1.00;;;;;;;;;;5105713;28;20100;-62
2023/03/11 04:34:02;;;;;;;3.20;1.10;;;;;;;;;;5078184;28;20076;-62
2023/03/11 04:36:28;;;;;;;1.60;0.80;;;;;;;;;;5074470;28;20044;-62
2023/03/11 04:38:55;;;;;;;4.78;1.23;;;;;;;;;;5091683;28;20123;-62
2023/03/11 04:41:21;;;;;;;5.60;1.25;;;;;;;;;;5092048;28;20052;-62
2023/03/11 04:43:47;;;;;;;5.00;1.27;;;;;;;;;;5092876;28;20042;-62
2023/03/11 04:46:13;;;;;;;4.57;1.30;;;;;;;;;;5091423;28;20044;-62
2023/03/11 04:48:39;;;;;;;6.60;1.52;;;;;;;;;;5105721;28;20036;-62
2023/03/11 04:51:06;;;;;;;3.53;1.33;;;;;;;;;;5092351;28;20109;-62
2023/03/11 04:53:32;;;;;;;3.17;0.80;;;;;;;;;;5091512;28;20036;-62
2023/03/11 04:55:58;;;;;;;2.10;1.00;;;;;;;;;;5092255;28;20541;-62
2023/03/11 04:58:24;;;;;;;3.95;0.90;;;;;;;;;;5091823;28;20083;-62
2023/03/11 05:00:51;;;;;;;6.18;1.15;;;;;;;;;;5091706;28;20082;-62
2023/03/11 05:03:17;;;;;;;4.55;1.20;;;;;;;;;;5092126;28;20032;-62
2023/03/11 05:05:44;;;;;;;5.13;1.20;;;;;;;;;;5091731;28;20043;-62
2023/03/11 05:08:10;;;;;;;5.78;0.93;;;;;;;;;;5091310;28;20048;-62
2023/03/11 05:10:36;;;;;;;5.72;1.13;;;;;;;;;;5091926;28;20046;-62
2023/03/11 05:13:02;;;;;;;3.25;1.20;;;;;;;;;;5091747;28;20044;-62
2023/03/11 05:15:30;;;;;;;2.40;0.90;;;;;;;;;;5091381;28;20051;-62
2023/03/11 05:17:56;;;;;;;4.30;1.10;;;;;;;;;;5091935;28;20058;-62
2023/03/11 05:20:22;;;;;;;4.38;1.45;;;;;;;;;;5092028;28;20048;-62
2023/03/11 05:22:48;;;;;;;4.78;1.10;;;;;;;;;;5090706;28;20044;-62
2023/03/11 05:25:14;;;;;;;5.18;1.08;;;;;;;;;;5111205;28;20079;-62
2023/03/11 05:27:40;;;;;;;5.18;1.10;;;;;;;;;;5112011;28;20083;-62
2023/03/11 05:30:06;;;;;;;7.28;1.13;;;;;;;;;;5093075;28;20394;-62
2023/03/11 05:32:32;;;;;;;2.88;1.20;;;;;;;;;;5111904;28;20438;-62
2023/03/11 05:34:58;;;;;;;3.45;1.15;;;;;;;;;;5112075;28;20036;-62
2023/03/11 05:37:24;;;;;;;2.72;1.10;;;;;;;;;;5110929;28;20040;-62
2023/03/11 05:39:51;;;;;;;4.75;1.00;;;;;;;;;;5111643;28;20507;-62
2023/03/11 05:42:17;;;;;;;4.57;0.90;;;;;;;;;;5111604;28;20122;-62
2023/03/11 05:44:43;;;;;;;3.53;1.10;;;;;;;;;;5110210;28;20493;-62
2023/03/11 05:47:09;;;;;;;4.40;1.00;;;;;;;;;;5107575;28;20036;-62
2023/03/11 05:49:35;;;;;;;5.53;1.20;;;;;;;;;;5084041;28;20040;-62
2023/03/11 05:52:01;;;;;;;4.28;1.20;;;;;;;;;;5110661;28;20066;-62
2023/03/11 05:54:27;;;;;;;4.40;1.23;;;;;;;;;;5093372;28;20040;-62
2023/03/11 05:56:54;;;;;;;1.70;0.90;;;;;;;;;;5111496;28;20032;-61
2023/03/11 05:59:20;;;;;;;2.65;1.30;;;;;;;;;;5110731;28;20051;-62
2023/03/11 06:01:46;;;;;;;3.50;1.15;;;;;;;;;;5111178;28;20039;-62
2023/03/11 06:04:12;;;;;;;8.43;1.05;;;;;;;;;;5111025;28;20036;-62
2023/03/11 06:06:42;;;;;;;2.70;1.35;;;;;;;;;;5110935;28;20080;-62
2023/03/11 06:09:12;;;;;;;1.75;1.33;;;;;;;;;;5111475;28;20350;-62
2023/03/11 06:11:37;;;;;;;5.10;1.02;;;;;;;;;;5111260;28;20490;-62
2023/03/11 06:14:04;;;;;;;1.95;0.90;;;;;;;;;;5110808;28;20118;-62
2023/03/11 06:16:30;;;;;;;2.22;1.05;;;;;;;;;;5110995;28;20049;-62
2023/03/11 06:18:56;;;;;;;2.25;1.20;;;;;;;;;;5111039;28;20047;-62
2023/03/11 06:21:25;;;;;;;4.60;1.27;;;;;;;;;;5110650;28;20398;-62
2023/03/11 06:23:51;;;;;;;3.55;0.93;;;;;;;;;;5102645;28;20057;-62
2023/03/11 06:26:19;;;;;;;2.65;1.20;;;;;;;;;;5090753;28;20040;-62
2023/03/11 06:28:45;;;;;;;2.55;1.30;;;;;;;;;;5090471;28;20389;-62
2023/03/11 06:31:16;;;;;;;2.65;1.25;;;;;;;;;;5089884;28;20091;-61
2023/03/11 06:33:42;;;;;;;3.45;1.40;;;;;;;;;;5090385;28;20036;-62
2023/03/11 06:36:08;;;;;;;3.70;1.15;;;;;;;;;;5089962;28;20079;-62
2023/03/11 06:38:34;;;;;;;5.25;1.20;;;;;;;;;;5089404;28;20513;-62
2023/03/11 06:41:02;;;;;;;7.53;1.50;;;;;;;;;;5089858;28;20043;-62
2023/03/11 06:43:28;;;;;;;4.55;1.60;;;;;;;;;;5090127;28;20078;-62
2023/03/11 06:45:54;;;;;;;7.82;1.60;;;;;;;;;;5089717;28;20517;-62
2023/03/11 06:48:20;;;;;;;4.10;1.25;;;;;;;;;;5103465;28;20070;-62
2023/03/11 06:50:53;;;;;;;4.55;1.50;;;;;;;;;;5090180;28;20036;-62
2023/03/11 06:53:19;;;;;;;5.35;1.70;;;;;;;;;;5089297;28;20040;-62
2023/03/11 06:55:45;;;;;;;6.15;1.63;;;;;;;;;;5090041;28;20051;-62
2023/03/11 06:58:11;;;;;;;5.22;1.25;;;;;;;;;;5089547;28;20047;-62
2023/03/11 07:00:37;;;;;;;5.80;1.40;;;;;;;;;;5089058;28;20115;-62
2023/03/11 07:03:03;;;;;;;5.72;1.95;;;;;;;;;;5090062;28;20044;-62
2023/03/11 07:05:29;;;;;;;7.57;1.40;;;;;;;;;;5089939;28;20036;-61
2023/03/11 07:07:55;;;;;;;3.67;1.40;;;;;;;;;;5089214;28;20036;-62
2023/03/11 07:10:21;;;;;;;4.05;1.58;;;;;;;;;;5089486;28;20367;-62
2023/03/11 07:12:47;;;;;;;4.57;1.63;;;;;;;;;;5089820;28;20047;-62
2023/03/11 07:15:13;;;;;;;2.13;1.05;;;;;;;;;;5089028;28;20498;-62
2023/03/11 07:17:39;;;;;;;4.95;2.42;;;;;;;;;;5089723;28;20043;-62
2023/03/11 07:20:05;;;;;;;6.18;1.55;;;;;;;;;;5089620;28;20044;-62
2023/03/11 07:22:31;;;;;;;6.75;1.30;;;;;;;;;;5088494;28;20148;-62
2023/03/11 07:24:57;;;;;;;2.65;1.38;;;;;;;;;;5106884;28;20097;-62
2023/03/11 07:27:23;;;;;;;3.85;1.30;;;;;;;;;;5109997;28;20043;-62
2023/03/11 07:29:49;;;;;;;7.00;1.67;;;;;;;;;;5109277;28;20039;-62
2023/03/11 07:32:15;;;;;;;8.35;1.55;;;;;;;;;;5109609;28;20040;-62
2023/03/11 07:34:41;;;;;;;4.93;1.27;;;;;;;;;;5109949;28;20326;-62
2023/03/11 07:37:07;;;;;;;6.05;1.50;;;;;;;;;;5109191;28;20400;-62
2023/03/11 07:39:33;;;;;;;2.50;1.60;;;;;;;;;;5091129;28;20043;-62
2023/03/11 07:41:59;;;;;;;6.25;1.52;;;;;;;;;;5109766;28;20051;-62
2023/03/11 07:44:25;;;;;;;2.67;1.80;;;;;;;;;;5109586;28;20032;-62
2023/03/11 07:46:51;;;;;;;5.35;1.95;;;;;;;;;;5108079;28;20035;-62
2023/03/11 07:49:17;;;;;;;5.50;1.40;;;;;;;;;;5079390;28;20048;-62
2023/03/11 07:51:43;;;;;;;2.50;1.38;;;;;;;;;;5109251;28;20035;-62
2023/03/11 07:54:10;;;;;;;7.20;1.60;;;;;;;;;;5109703;28;20484;-62
2023/03/11 07:56:37;;;;;;;5.05;1.48;;;;;;;;;;5109870;28;20134;-62
2023/03/11 07:59:03;;;;;;;7.30;1.75;;;;;;;;;;5109024;28;20039;-62
2023/03/11 08:01:34;;;;;;;3.75;1.40;;;;;;;;;;5109754;28;20393;-62
2023/03/11 08:04:01;;;;;;;7.93;1.88;;;;;;;;;;5091285;28;20054;-62
2023/03/11 08:06:30;;;;;;;8.38;1.73;;;;;;;;;;5109163;28;20040;-62
2023/03/11 08:08:56;;;;;;;6.93;1.60;;;;;;;;;;5111582;28;20149;-62
2023/03/11 08:11:22;;;;;;;5.95;1.80;;;;;;;;;;5113637;28;20048;-62
2023/03/11 08:13:48;;;;;;;7.22;1.70;;;;;;;;;;5112944;28;20485;-62
2023/03/11 08:16:16;;;;;;;5.35;1.83;;;;;;;;;;5113336;28;20381;-62
2023/03/11 08:18:42;;;;;;;7.32;2.17;;;;;;;;;;5113004;28;20040;-62
2023/03/11 08:21:10;;;;;;;6.13;2.13;;;;;;;;;;5112265;28;20048;-62
2023/03/11 08:23:36;;;;;;;10.65;1.98;;;;;;;;;;5107387;28;20047;-62
2023/03/11 08:26:06;;;;;;;4.65;1.77;;;;;;;;;;5092933;28;20035;-62
2023/03/11 08:28:32;;;;;;;2.80;1.50;;;;;;;;;;5092153;28;20131;-62
2023/03/11 08:30:59;;;;;;;6.68;1.45;;;;;;;;;;5092606;28;20338;-62
2023/03/11 08:33:25;;;;;;;6.82;1.52;;;;;;;;;;5092774;28;20043;-62
2023/03/11 08:35:51;;;;;;;5.90;1.63;;;;;;;;;;5091911;28;20463;-62
2023/03/11 08:38:16;;;;;;;3.67;1.38;;;;;;;;;;5092406;28;20493;-62
2023/03/11 08:40:42;;;;;;;6.18;1.80;;;;;;;;;;5092370;28;20177;-62
2023/03/11 08:43:12;;;;;;;6.97;1.30;;;;;;;;;;5092046;28;20036;-62
2023/03/11 08:45:39;;;;;;;5.38;1.70;;;;;;;;;;5092564;28;20541;-62
2023/03/11 08:48:05;;;;;;;3.13;1.30;;;;;;;;;;5085789;28;20040;-62
2023/03/11 08:50:31;;;;;;;6.68;1.83;;;;;;;;;;5093042;28;20105;-62
2023/03/11 08:52:59;;;;;;;2.15;1.40;;;;;;;;;;5092438;28;20296;-62
2023/03/11 08:55:27;;;;;;;5.57;1.35;;;;;;;;;;5074147;28;20052;-62
2023/03/11 08:57:53;;;;;;;6.03;1.48;;;;;;;;;;5092026;28;20067;-62
2023/03/11 09:00:19;;;;;;;5.13;1.60;;;;;;;;;;5092440;28;20051;-62
2023/03/11 09:02:46;;;;;;;6.60;1.65;;;;;;;;;;5092116;28;20082;-62
2023/03/11 09:05:12;;;;;;;5.13;2.00;;;;;;;;;;5091452;28;20051;-62
2023/03/11 09:07:38;;;;;;;5.70;1.40;;;;;;;;;;5092128;28;20032;-62
2023/03/11 09:10:05;;;;;;;5.65;1.98;;;;;;;;;;5091882;28;20043;-62
2023/03/11 09:12:31;;;;;;;7.95;1.50;;;;;;;;;;5091387;28;20046;-62
2023/03/11 09:14:57;;;;;;;6.78;1.67;;;;;;;;;;5091970;28;20410;-62
2023/03/11 09:17:23;;;;;;;6.28;1.88;;;;;;;;;;5091881;28;20043;-62
2023/03/11 09:19:49;;;;;;;6.00;1.90;;;;;;;;;;5091286;28;20039;-63
2023/03/11 09:22:15;;;;;;;2.72;1.40;;;;;;;;;;5091355;28;20052;-63
2023/03/11 09:24:41;;;;;;;3.83;1.42;;;;;;;;;;5106557;28;20587;-62
2023/03/11 09:27:07;;;;;;;4.30;1.55;;;;;;;;;;5111513;28;20112;-62
2023/03/11 09:29:33;;;;;;;7.07;1.50;;;;;;;;;;5111878;28;20040;-62
2023/03/11 09:31:59;;;;;;;5.88;1.50;;;;;;;;;;5112056;28;20065;-62
2023/03/11 09:34:25;;;;;;;9.32;1.65;;;;;;;;;;5111279;28;20074;-62
2023/03/11 09:36:51;;;;;;;4.32;1.85;;;;;;;;;;5111865;28;20083;-62
2023/03/11 09:39:18;;;;;;;7.57;1.63;;;;;;;;;;5111661;28;20061;-62
2023/03/11 09:41:44;;;;;;;5.43;1.67;;;;;;;;;;5110978;28;20048;-62
2023/03/11 09:44:12;;;;;;;5.55;1.92;;;;;;;;;;5111468;28;20545;-62
2023/03/11 09:46:53;;;;;;;6.97;1.95;;;;;;;;;;5111400;28;20043;-62
2023/03/11 09:49:28;;;;;;;10.40;1.58;;;;;;;;;;5099288;28;20043;-62
2023/03/11 09:51:59;;;;;;;4.95;1.45;;;;;;;;;;5111526;28;20451;-62
2023/03/11 09:54:27;;;;;;;6.20;1.67;;;;;;;;;;5111475;28;20469;-62
2023/03/11 09:56:54;;;;;;;5.88;2.20;;;;;;;;;;5110605;28;20047;-62
2023/03/11 09:59:26;;;;;;;2.13;1.55;;;;;;;;;;5111197;28;20045;-62
2023/03/11 10:01:52;;;;;;;11.10;2.30;;;;;;;;;;5111189;28;20100;-62
2023/03/11 10:04:39;;;;;;;5.22;1.60;;;;;;;;;;5110356;28;20074;-62
2023/03/11 10:07:11;;;;;;;7.35;1.63;;;;;;;;;;5111558;28;20092;-62
2023/03/11 10:09:46;;;;;;;4.95;2.35;;;;;;;;;;5111086;28;20096;-62
2023/03/11 10:12:30;;;;;;;8.70;1.95;;;;;;;;;;5110709;28;20058;-63
2023/03/11 10:15:15;;;;;;;7.68;1.80;;;;;;;;;;5110915;28;20085;-62
2023/03/11 10:17:59;;;;;;;7.22;1.52;;;;;;;;;;5092485;28;20054;-62
2023/03/11 10:20:33;;;;;;;3.70;1.35;;;;;;;;;;5109938;28;20089;-62
2023/03/11 10:23:09;;;;;;;6.00;1.60;;;;;;;;;;5109962;28;20074;-63
2023/03/11 10:25:38;;;;;;;6.55;1.80;;;;;;;;;;5090591;28;20052;-63
2023/03/11 10:28:07;;;;;;;5.10;1.30;;;;;;;;;;5090056;28;20036;-62
2023/03/11 10:30:40;;;;;;;5.53;1.50;;;;;;;;;;5089756;28;20036;-63
2023/03/11 10:33:06;;;;;;;6.72;1.50;;;;;;;;;;5089723;28;20389;-63
2023/03/11 10:35:32;;;;;;;5.47;1.50;;;;;;;;;;5090669;28;20040;-63
2023/03/11 10:38:02;;;;;;;6.20;1.45;;;;;;;;;;5090402;28;20127;-63
2023/03/11 10:40:32;;;;;;;5.93;1.52;;;;;;;;;;5089498;28;20111;-63
2023/03/11 10:43:03;;;;;;;6.85;1.60;;;;;;;;;;5090312;28;20040;-63
2023/03/11 10:45:32;;;;;;;6.18;1.23;;;;;;;;;;5090225;28;20040;-63
2023/03/11 10:47:58;;;;;;;5.18;1.50;;;;;;;;;;5100396;28;20040;-63
2023/03/11 10:50:24;;;;;;;5.55;1.50;;;;;;;;;;5092437;28;20036;-63
2023/03/11 10:53:05;;;;;;;5.05;1.50;;;;;;;;;;5089970;28;20374;-63
2023/03/11 10:55:31;;;;;;;5.45;1.40;;;;;;;;;;5089674;28;20117;-63
2023/03/11 10:58:13;;;;;;;7.78;1.73;;;;;;;;;;5089925;28;20316;-63
2023/03/11 11:00:39;;;;;;;10.73;1.58;;;;;;;;;;5089761;28;20043;-63
2023/03/11 11:03:12;;;;;;;5.85;1.40;;;;;;;;;;5088886;28;20394;-63
2023/03/11 11:05:38;;;;;;;5.55;1.60;;;;;;;;;;5089934;28;20056;-63
2023/03/11 11:08:13;;;;;;;4.20;1.10;;;;;;;;;;5071481;28;20108;-63
2023/03/11 11:10:48;;;;;;;3.97;1.45;;;;;;;;;;5089214;28;20063;-63
2023/03/11 11:13:15;;;;;;;7.45;1.40;;;;;;;;;;5089978;28;20405;-63
2023/03/11 11:15:56;;;;;;;12.10;2.50;;;;;;;;;;5089755;28;20244;-63
2023/03/11 11:18:52;;;;;;;5.25;0.95;;;;;;;;;;5089193;28;20044;-63
2023/03/11 11:21:28;;;;;;;2.97;1.23;;;;;;;;;;5071772;28;20581;-63
2023/03/11 11:24:20;;;;;;;5.47;1.15;;;;;;;;;;5097739;28;20051;-63
2023/03/11 11:27:12;;;;;;;5.78;1.35;;;;;;;;;;5086563;28;20096;-63
2023/03/11 11:29:38;;;;;;;3.15;1.13;;;;;;;;;;5091463;28;20442;-63
2023/03/11 11:32:23;;;;;;;7.30;1.00;;;;;;;;;;5109870;28;20401;-63
2023/03/11 11:34:53;;;;;;;3.55;1.05;;;;;;;;;;5109693;28;20043;-63
2023/03/11 11:37:20;;;;;;;3.53;1.00;;;;;;;;;;5109636;28;20404;-63
2023/03/11 11:39:52;;;;;;;9.80;1.17;;;;;;;;;;5108809;28;20382;-63
2023/03/11 11:42:18;;;;;;;3.95;1.15;;;;;;;;;;5109802;28;20039;-63
2023/03/11 11:44:46;;;;;;;3.85;0.98;;;;;;;;;;5113518;28;20040;-63
2023/03/11 11:47:15;;;;;;;3.92;1.20;;;;;;;;;;5108822;28;20040;-63
2023/03/11 11:49:48;;;;;;;5.47;1.10;;;;;;;;;;5105502;28;20043;-63
2023/03/11 11:52:16;;;;;;;4.78;1.10;;;;;;;;;;5113812;28;20047;-63
2023/03/11 11:54:46;;;;;;;5.72;0.98;;;;;;;;;;5113280;28;20082;-63
2023/03/11 11:57:16;;;;;;;6.68;1.58;;;;;;;;;;5113884;28;20035;-63
2023/03/11 11:59:42;;;;;;;3.05;1.02;;;;;;;;;;5113383;28;20040;-63
2023/03/11 12:02:11;;;;;;;5.53;1.17;;;;;;;;;;5112867;28;20040;-63
2023/03/11 12:04:56;;;;;;;7.85;0.90;;;;;;;;;;5113710;28;20127;-63
2023/03/11 12:07:40;;;;;;;3.95;0.95;;;;;;;;;;5113306;28;20048;-63
2023/03/11 12:10:18;;;;;;;5.30;1.13;;;;;;;;;;5112962;28;20039;-63
2023/03/11 12:12:44;;;;;;;5.20;1.10;;;;;;;;;;5113573;28;20100;-63
2023/03/11 12:15:15;;;;;;;4.55;1.00;;;;;;;;;;5113651;28;20047;-63
2023/03/11 12:17:43;;;;;;;3.07;0.90;;;;;;;;;;5112891;28;20085;-63
2023/03/11 12:20:26;;;;;;;4.25;0.93;;;;;;;;;;5113401;28;20147;-63
2023/03/11 12:22:55;;;;;;;8.60;1.35;;;;;;;;;;5112745;28;20055;-63
2023/03/11 12:25:57;;;;;;;3.72;1.00;;;;;;;;;;5092410;28;20039;-64
2023/03/11 12:28:33;;;;;;;3.78;0.90;;;;;;;;;;5009830;28;20073;-64
2023/03/11 12:31:02;;;;;;;2.97;0.70;;;;;;;;;;5081701;28;20051;-64
2023/03/11 12:33:41;;;;;;;3.33;0.77;;;;;;;;;;5092100;28;20040;-64
2023/03/11 12:36:20;;;;;;;7.60;1.13;;;;;;;;;;5092687;28;20044;-64
2023/03/11 12:38:47;;;;;;;4.75;0.93;;;;;;;;;;5092433;28;20047;-64
2023/03/11 12:41:13;;;;;;;3.40;0.88;;;;;;;;;;5091788;28;20035;-64
2023/03/11 12:43:39;;;;;;;5.95;1.08;;;;;;;;;;5092678;28;20496;-64
2023/03/11 12:46:06;;;;;;;4.53;1.00;;;;;;;;;;5092438;28;20036;-64
2023/03/11 12:48:33;;;;;;;3.90;1.05;;;;;;;;;;5105252;28;20393;-64
2023/03/11 12:50:59;;;;;;;5.20;1.08;;;;;;;;;;5092701;28;20048;-64
2023/03/11 12:53:44;;;;;;;2.00;0.80;;;;;;;;;;5092022;28;20036;-64
2023/03/11 12:56:19;;;;;;;4.38;0.70;;;;;;;;;;5091963;28;20170;-64
2023/03/11 12:58:51;;;;;;;4.72;1.30;;;;;;;;;;5092394;28;20484;-64
2023/03/11 13:01:21;;;;;;;4.35;1.15;;;;;;;;;;5091435;28;20043;-64
2023/03/11 13:03:58;;;;;;;3.92;0.85;;;;;;;;;;5092028;28;20036;-64
2023/03/11 13:06:42;;;;;;;3.08;0.50;;;;;;;;;;5091968;28;20125;-64
2023/03/11 13:09:16;;;;;;;4.30;0.90;;;;;;;;;;5072984;28;20044;-64
2023/03/11 13:11:43;;;;;;;3.67;0.60;;;;;;;;;;5091960;28;20043;-64
2023/03/11 13:14:10;;;;;;;2.00;0.60;;;;;;;;;;5074005;28;20092;-64
2023/03/11 13:16:37;;;;;;;1.98;0.60;;;;;;;;;;5091277;28;20044;-64
2023/03/11 13:19:22;;;;;;;3.10;0.80;;;;;;;;;;5091683;28;20044;-64
2023/03/11 13:21:48;;;;;;;3.45;0.73;;;;;;;;;;5091228;28;20056;-64
2023/03/11 13:24:20;;;;;;;2.92;0.70;;;;;;;;;;5101927;28;20504;-64
2023/03/11 13:26:46;;;;;;;3.25;0.60;;;;;;;;;;5093781;28;20055;-65
2023/03/11 13:29:36;;;;;;;4.32;0.88;;;;;;;;;;5111805;28;20088;-65
2023/03/11 13:32:08;;;;;;;1.70;0.60;;;;;;;;;;5063989;28;20055;-65
2023/03/11 13:34:41;;;;;;;4.45;1.10;;;;;;;;;;5112183;28;20039;-65
2023/03/11 13:37:18;;;;;;;4.95;0.70;;;;;;;;;;5111662;28;20074;-65
2023/03/11 13:40:01;;;;;;;2.42;0.88;;;;;;;;;;5111136;28;20035;-65
2023/03/11 13:42:31;;;;;;;2.47;0.68;;;;;;;;;;5111674;28;20100;-65
2023/03/11 13:44:58;;;;;;;5.18;0.60;;;;;;;;;;5112194;28;20067;-65
2023/03/11 13:47:25;;;;;;;4.45;0.82;;;;;;;;;;5105177;28;20497;-65
2023/03/11 13:50:09;;;;;;;3.60;0.68;;;;;;;;;;5104256;28;20554;-65
2023/03/11 13:52:38;;;;;;;3.63;0.80;;;;;;;;;;5111593;28;20071;-65
2023/03/11 13:55:08;;;;;;;2.40;0.70;;;;;;;;;;5110615;28;20035;-65
2023/03/11 13:57:36;;;;;;;3.63;0.40;;;;;;;;;;5111812;28;20441;-65
2023/03/11 14:00:16;;;;;;;5.93;0.47;;;;;;;;;;5111214;28;20043;-65
2023/03/11 14:02:47;;;;;;;3.60;0.70;;;;;;;;;;5111120;28;20111;-65
2023/03/11 14:05:15;;;;;;;2.83;0.70;;;;;;;;;;5111418;28;20389;-65
2023/03/11 14:07:41;;;;;;;2.83;1.00;;;;;;;;;;5110317;28;20032;-65
2023/03/11 14:10:19;;;;;;;6.05;1.65;;;;;;;;;;5110831;28;20035;-65
2023/03/11 14:12:45;;;;;;;3.17;1.20;;;;;;;;;;5111309;28;20130;-65
2023/03/11 14:15:25;;;;;;;1.45;0.90;;;;;;;;;;5110310;28;20071;-65
2023/03/11 14:17:52;;;;;;;6.30;2.78;;;;;;;;;;5092989;28;20051;-65
2023/03/11 14:20:23;;;;;;;3.75;1.10;;;;;;;;;;5111072;28;20149;-65
2023/03/11 14:22:51;;;;;;;4.93;0.90;;;;;;;;;;5109976;28;20361;-65
2023/03/11 14:25:37;;;;;;;2.10;0.43;;;;;;;;;;5091235;28;20048;-65
2023/03/11 14:28:04;;;;;;;4.63;0.85;;;;;;;;;;5090472;28;20050;-65
2023/03/11 14:30:31;;;;;;;1.92;0.85;;;;;;;;;;5089685;28;20032;-65
2023/03/11 14:33:04;;;;;;;2.20;0.90;;;;;;;;;;5090559;28;20143;-64
2023/03/11 14:35:32;;;;;;;5.25;1.25;;;;;;;;;;5090445;28;20083;-65
2023/03/11 14:37:58;;;;;;;4.22;0.88;;;;;;;;;;5089473;28;20122;-65
2023/03/11 14:40:26;;;;;;;4.30;0.85;;;;;;;;;;5090348;28;20166;-65
2023/03/11 14:42:53;;;;;;;12.38;4.88;;;;;;;;;;5090230;28;20048;-65
2023/03/11 14:45:21;;;;;;;11.63;4.45;;;;;;;;;;5089554;28;20125;-65
2023/03/11 14:47:59;;;;;;;4.00;1.23;;;;;;;;;;5099466;28;20175;-65
2023/03/11 14:50:26;;;;;;;6.65;1.40;;;;;;;;;;5092538;28;20398;-65
2023/03/11 14:52:55;;;;;;;4.82;1.10;;;;;;;;;;5089542;28;20083;-65